Time;durP1;ratioP1;P1;durP2;ratioP2;P2;SDS_P1;SDS_P2;PMS_P1;PMS_P2;Temp;Humidity;BMP_temperature;BMP_pressure;BME280_temperature;BME280_humidity;BME280_pressure;Samples;Min_cycle;Max_cycle;Signal;HPM_P1;HPM_P2
2023/10/02 00:01:23;;;;;;;21.58;13.48;;;;;;;;;;6224300;22;20414;-84
2023/10/02 00:04:16;;;;;;;24.70;14.60;;;;;;;;;;6224494;22;20023;-84
2023/10/02 00:06:38;;;;;;;29.73;14.70;;;;;;;;;;6249899;22;20034;-84
2023/10/02 00:09:05;;;;;;;32.42;14.70;;;;;;;;;;6224305;22;20095;-84
2023/10/02 00:11:45;;;;;;;26.83;14.77;;;;;;;;;;6224758;22;20099;-84
2023/10/02 00:14:22;;;;;;;23.23;13.70;;;;;;;;;;6224841;22;20069;-84
2023/10/02 00:16:58;;;;;;;28.20;14.10;;;;;;;;;;6224667;22;20012;-84
2023/10/02 00:19:38;;;;;;;24.88;13.95;;;;;;;;;;6224921;22;20158;-84
2023/10/02 00:22:08;;;;;;;25.30;14.48;;;;;;;;;;6224292;22;20078;-84
2023/10/02 00:24:47;;;;;;;25.73;14.68;;;;;;;;;;6224523;22;20141;-84
2023/10/02 00:27:16;;;;;;;24.92;14.38;;;;;;;;;;6224271;22;20090;-84
2023/10/02 00:29:53;;;;;;;30.42;14.65;;;;;;;;;;6225005;22;20015;-84
2023/10/02 00:32:20;;;;;;;29.05;14.73;;;;;;;;;;6224721;22;20012;-84
2023/10/02 00:34:47;;;;;;;30.70;14.40;;;;;;;;;;6224441;22;20069;-84
2023/10/02 00:37:16;;;;;;;26.40;14.23;;;;;;;;;;6223882;22;20022;-84
2023/10/02 00:39:47;;;;;;;25.67;15.02;;;;;;;;;;6224420;22;20018;-84
2023/10/02 00:42:16;;;;;;;26.10;14.18;;;;;;;;;;6225000;22;20019;-84
2023/10/02 00:44:56;;;;;;;29.00;15.90;;;;;;;;;;6235254;22;20045;-84
2023/10/02 00:50:30;;;;;;;28.40;15.00;;;;;;;;;;6279296;22;20049;-83
2023/10/02 00:52:58;;;;;;;27.85;14.80;;;;;;;;;;6255231;22;20050;-83
2023/10/02 00:55:32;;;;;;;27.25;13.82;;;;;;;;;;6254189;22;20026;-84
2023/10/02 00:57:59;;;;;;;26.52;14.18;;;;;;;;;;6280314;22;20470;-84
2023/10/02 01:00:37;;;;;;;28.70;15.73;;;;;;;;;;6254631;22;20019;-84
2023/10/02 01:03:19;;;;;;;29.65;14.75;;;;;;;;;;6280658;22;20115;-84
2023/10/02 01:05:50;;;;;;;29.85;14.55;;;;;;;;;;6253524;22;20023;-84
2023/10/02 01:08:24;;;;;;;27.85;15.30;;;;;;;;;;6255267;22;20069;-84
2023/10/02 01:10:59;;;;;;;30.08;14.70;;;;;;;;;;6255012;22;20394;-83
2023/10/02 01:13:35;;;;;;;25.02;14.75;;;;;;;;;;6254418;22;20053;-84
2023/10/02 01:16:03;;;;;;;;;;;;;;;;;;6254973;22;20075;-84
2023/10/02 01:18:29;;;;;;;25.92;14.43;;;;;;;;;;6254725;22;19915;-84
2023/10/02 01:20:56;;;;;;;28.77;14.38;;;;;;;;;;6253599;22;20015;-84
2023/10/02 01:23:30;;;;;;;24.83;14.20;;;;;;;;;;6279404;22;20451;-84
2023/10/02 01:25:57;;;;;;;23.23;13.18;;;;;;;;;;6254726;22;20016;-84
2023/10/02 01:28:51;;;;;;;24.58;13.82;;;;;;;;;;6254595;22;20443;-84
2023/10/02 01:31:32;;;;;;;24.55;14.30;;;;;;;;;;6254961;22;20019;-84
2023/10/02 01:34:02;;;;;;;25.13;13.52;;;;;;;;;;6254960;22;20026;-84
2023/10/02 01:36:32;;;;;;;23.02;13.02;;;;;;;;;;6253876;22;20019;-84
2023/10/02 01:39:10;;;;;;;27.70;14.18;;;;;;;;;;6254403;22;20077;-84
2023/10/02 01:41:48;;;;;;;24.08;13.32;;;;;;;;;;6307474;22;20015;-84
2023/10/02 01:44:20;;;;;;;28.33;13.85;;;;;;;;;;6253477;22;20015;-83
2023/10/02 01:46:55;;;;;;;27.75;14.77;;;;;;;;;;6254500;22;20026;-84
2023/10/02 01:49:25;;;;;;;26.98;13.95;;;;;;;;;;6279562;22;20067;-84
2023/10/02 01:51:57;;;;;;;25.38;14.13;;;;;;;;;;6279824;22;20015;-84
2023/10/02 01:54:25;;;;;;;27.27;14.77;;;;;;;;;;6253937;22;20075;-84
2023/10/02 01:56:52;;;;;;;25.25;15.05;;;;;;;;;;6254317;22;20015;-83
2023/10/02 01:59:24;;;;;;;28.13;14.60;;;;;;;;;;6253724;22;20011;-84
2023/10/02 02:01:57;;;;;;;26.27;15.00;;;;;;;;;;6254611;22;20088;-84
2023/10/02 02:04:23;;;;;;;27.20;15.32;;;;;;;;;;6254353;22;20134;-84
2023/10/02 02:06:52;;;;;;;31.05;16.60;;;;;;;;;;6306241;22;20026;-84
2023/10/02 02:09:24;;;;;;;26.08;16.52;;;;;;;;;;6254391;22;20015;-84
2023/10/02 02:12:22;;;;;;;25.40;15.90;;;;;;;;;;6254140;22;20011;-84
2023/10/02 02:14:51;;;;;;;27.83;16.02;;;;;;;;;;6254106;22;20042;-84
2023/10/02 02:17:27;;;;;;;36.15;17.58;;;;;;;;;;6253959;22;20153;-84
2023/10/02 02:19:53;;;;;;;;;;;;;;;;;;6255097;22;20089;-84
2023/10/02 02:22:25;;;;;;;27.20;16.98;;;;;;;;;;6253373;22;19990;-83
2023/10/02 02:24:53;;;;;;;29.77;17.65;;;;;;;;;;6254268;22;20018;-84
2023/10/02 02:27:19;;;;;;;32.05;17.63;;;;;;;;;;6306536;22;20064;-84
2023/10/02 02:29:46;;;;;;;33.47;18.55;;;;;;;;;;6254270;22;20053;-84
2023/10/02 02:32:12;;;;;;;30.77;17.33;;;;;;;;;;6252901;22;20015;-84
2023/10/02 02:34:39;;;;;;;31.08;18.52;;;;;;;;;;6252943;22;20015;-84
2023/10/02 02:37:06;;;;;;;34.38;18.50;;;;;;;;;;6253334;22;20076;-84
2023/10/02 02:39:37;;;;;;;35.38;19.30;;;;;;;;;;6253968;22;20015;-84
2023/10/02 02:42:18;;;;;;;35.53;19.92;;;;;;;;;;6254119;22;20140;-84
2023/10/02 02:44:53;;;;;;;33.92;19.58;;;;;;;;;;6253636;22;20051;-84
2023/10/02 02:47:23;;;;;;;36.10;20.70;;;;;;;;;;6253350;22;20120;-84
2023/10/02 02:49:58;;;;;;;37.25;21.42;;;;;;;;;;6252522;22;20019;-84
2023/10/02 02:52:26;;;;;;;41.63;21.35;;;;;;;;;;6253502;22;20346;-83
2023/10/02 02:54:59;;;;;;;39.80;21.08;;;;;;;;;;6253563;22;20011;-84
2023/10/02 02:57:29;;;;;;;38.22;20.83;;;;;;;;;;6254016;22;20023;-84
2023/10/02 03:02:52;;;;;;;37.28;21.58;;;;;;;;;;6279180;22;20023;-84
2023/10/02 03:05:21;;;;;;;38.95;21.70;;;;;;;;;;6253636;22;20020;-84
2023/10/02 03:07:56;;;;;;;42.75;22.42;;;;;;;;;;6253575;22;20019;-84
2023/10/02 03:10:23;;;;;;;40.55;22.48;;;;;;;;;;6279424;22;20015;-84
2023/10/02 03:12:52;;;;;;;43.30;22.48;;;;;;;;;;6254700;22;20474;-84
2023/10/02 03:15:19;;;;;;;40.85;23.40;;;;;;;;;;6253637;22;20439;-84
2023/10/02 03:17:46;;;;;;;41.20;23.02;;;;;;;;;;6252921;22;20018;-84
2023/10/02 03:20:24;;;;;;;42.00;23.42;;;;;;;;;;6254069;22;20064;-84
2023/10/02 03:22:57;;;;;;;41.95;22.92;;;;;;;;;;6252810;22;20035;-84
2023/10/02 03:25:41;;;;;;;40.40;22.80;;;;;;;;;;6253683;22;20086;-84
2023/10/02 03:28:16;;;;;;;39.75;23.50;;;;;;;;;;6254279;22;20011;-83
2023/10/02 03:30:47;;;;;;;40.42;23.67;;;;;;;;;;6253484;22;20012;-84
2023/10/02 03:33:20;;;;;;;37.40;21.02;;;;;;;;;;6278986;22;20015;-84
2023/10/02 03:36:02;;;;;;;41.20;23.70;;;;;;;;;;6255179;22;20011;-84
2023/10/02 03:38:33;;;;;;;45.08;24.10;;;;;;;;;;6255340;22;20469;-84
2023/10/02 03:41:01;;;;;;;39.75;22.23;;;;;;;;;;6281392;22;20021;-84
2023/10/02 03:43:46;;;;;;;35.80;22.15;;;;;;;;;;6255209;22;20026;-84
2023/10/02 03:46:15;;;;;;;37.33;22.33;;;;;;;;;;6255628;22;20258;-84
2023/10/02 03:48:41;;;;;;;38.00;22.10;;;;;;;;;;6281222;22;20069;-84
2023/10/02 03:51:08;;;;;;;42.33;22.50;;;;;;;;;;6255089;22;20090;-85
2023/10/02 03:53:37;;;;;;;36.22;22.13;;;;;;;;;;6255788;22;20034;-84
2023/10/02 03:58:52;;;;;;;39.75;22.63;;;;;;;;;;6281372;22;20030;-84
2023/10/02 04:01:31;;;;;;;38.53;21.58;;;;;;;;;;6254878;22;20011;-84
2023/10/02 04:04:40;;;;;;;40.78;21.92;;;;;;;;;;6253466;22;20016;-84
2023/10/02 04:06:50;;;;;;;39.95;22.58;;;;;;;;;;6268353;22;20430;-84
2023/10/02 04:09:23;;;;;;;41.08;23.08;;;;;;;;;;6280548;22;20046;-84
2023/10/02 04:11:50;;;;;;;41.03;22.38;;;;;;;;;;6255508;22;20018;-84
2023/10/02 04:14:33;;;;;;;44.50;23.35;;;;;;;;;;6280918;22;20361;-84
2023/10/02 04:17:10;;;;;;;41.55;23.98;;;;;;;;;;6255460;22;20019;-85
2023/10/02 04:19:43;;;;;;;41.22;23.38;;;;;;;;;;6254625;22;20473;-84
2023/10/02 04:22:19;;;;;;;42.60;23.65;;;;;;;;;;6254311;22;20019;-84
2023/10/02 04:24:53;;;;;;;43.50;23.80;;;;;;;;;;6255461;22;20339;-84
2023/10/02 04:27:25;;;;;;;41.75;23.55;;;;;;;;;;6255272;22;20340;-84
2023/10/02 04:30:37;;;;;;;39.45;24.08;;;;;;;;;;6255217;22;20015;-83
2023/10/02 04:35:46;;;;;;;41.53;24.20;;;;;;;;;;6228962;22;20015;-84
2023/10/02 04:38:14;;;;;;;41.25;25.65;;;;;;;;;;6254906;22;20056;-84
2023/10/02 04:40:49;;;;;;;44.03;23.67;;;;;;;;;;6255103;22;20015;-84
2023/10/02 04:43:28;;;;;;;47.80;25.15;;;;;;;;;;6254789;22;20007;-84
2023/10/02 04:46:14;;;;;;;42.97;24.55;;;;;;;;;;6254587;22;20125;-84
2023/10/02 04:48:45;;;;;;;41.92;23.95;;;;;;;;;;6254900;22;20100;-84
2023/10/02 04:51:12;;;;;;;48.38;25.45;;;;;;;;;;6254328;22;20062;-84
2023/10/02 04:53:46;;;;;;;42.35;24.67;;;;;;;;;;6254901;22;20015;-84
2023/10/02 04:58:51;;;;;;;41.53;25.20;;;;;;;;;;6280727;22;20023;-84
2023/10/02 05:03:53;;;;;;;41.13;24.77;;;;;;;;;;6278928;22;20459;-84
2023/10/02 05:06:42;;;;;;;46.55;26.35;;;;;;;;;;6254885;22;20097;-84
2023/10/02 05:14:16;;;;;;;43.83;24.77;;;;;;;;;;6281471;22;20030;-84
2023/10/02 05:16:47;;;;;;;48.53;26.55;;;;;;;;;;6255357;22;20015;-84
2023/10/02 05:19:15;;;;;;;45.63;26.17;;;;;;;;;;6256322;22;20022;-84
2023/10/02 05:21:55;;;;;;;49.45;27.55;;;;;;;;;;6256417;22;20400;-84
2023/10/02 05:24:21;;;;;;;51.05;27.25;;;;;;;;;;6255566;22;20081;-85
2023/10/02 05:26:47;;;;;;;50.53;27.83;;;;;;;;;;6255366;22;20106;-84
2023/10/02 05:29:17;;;;;;;44.65;27.35;;;;;;;;;;6255037;22;20015;-84
2023/10/02 05:31:49;;;;;;;49.92;27.88;;;;;;;;;;6253651;22;20054;-84
2023/10/02 05:34:23;;;;;;;46.15;26.48;;;;;;;;;;6280292;22;20015;-84
2023/10/02 05:37:11;;;;;;;46.25;26.83;;;;;;;;;;6254492;22;20023;-84
2023/10/02 05:39:41;;;;;;;49.30;26.52;;;;;;;;;;6254089;22;20015;-84
2023/10/02 05:42:13;;;;;;;52.85;28.67;;;;;;;;;;6254860;22;20026;-84
2023/10/02 05:44:45;;;;;;;49.65;28.25;;;;;;;;;;6253717;22;20015;-84
2023/10/02 05:47:16;;;;;;;52.08;28.30;;;;;;;;;;6254890;22;20012;-84
2023/10/02 05:49:49;;;;;;;49.15;27.52;;;;;;;;;;6253947;22;20015;-85
2023/10/02 05:52:18;;;;;;;52.78;27.33;;;;;;;;;;6254037;22;20103;-84
2023/10/02 05:54:53;;;;;;;49.97;27.48;;;;;;;;;;6254139;22;20030;-84
2023/10/02 05:57:19;;;;;;;48.30;27.60;;;;;;;;;;6279874;22;20015;-84
2023/10/02 05:59:48;;;;;;;56.40;28.10;;;;;;;;;;6254887;22;20016;-83
2023/10/02 06:02:21;;;;;;;53.78;28.77;;;;;;;;;;6254041;22;20090;-83
2023/10/02 06:04:48;;;;;;;50.40;27.38;;;;;;;;;;6254405;22;20362;-83
2023/10/02 06:10:08;;;;;;;53.35;29.38;;;;;;;;;;6281666;22;20066;-83
2023/10/02 06:12:42;;;;;;;52.40;28.52;;;;;;;;;;6255100;22;20114;-83
2023/10/02 06:17:54;;;;;;;48.00;27.15;;;;;;;;;;6278021;22;20027;-83
2023/10/02 06:20:21;;;;;;;51.75;27.35;;;;;;;;;;6253795;22;20023;-83
2023/10/02 06:22:47;;;;;;;50.90;28.27;;;;;;;;;;6255015;22;20455;-83
2023/10/02 06:25:18;;;;;;;50.20;27.02;;;;;;;;;;6254934;22;20015;-83
2023/10/02 06:27:47;;;;;;;47.97;27.58;;;;;;;;;;6254585;22;20094;-83
2023/10/02 06:30:19;;;;;;;49.67;27.95;;;;;;;;;;6253700;22;20019;-83
2023/10/02 06:32:54;;;;;;;47.85;27.58;;;;;;;;;;6254530;22;20486;-84
2023/10/02 06:35:21;;;;;;;47.30;26.47;;;;;;;;;;6253975;22;20012;-83
2023/10/02 06:37:52;;;;;;;52.55;27.60;;;;;;;;;;6253609;22;20026;-83
2023/10/02 06:40:23;;;;;;;52.78;27.48;;;;;;;;;;6252723;22;20318;-83
2023/10/02 06:42:51;;;;;;;53.15;28.67;;;;;;;;;;6253943;22;20431;-83
2023/10/02 06:45:20;;;;;;;53.72;29.02;;;;;;;;;;6253714;22;20015;-83
2023/10/02 06:48:07;;;;;;;49.45;27.17;;;;;;;;;;6254536;22;20027;-83
2023/10/02 06:50:36;;;;;;;49.33;26.98;;;;;;;;;;6254434;22;20054;-84
2023/10/02 06:53:03;;;;;;;53.50;26.10;;;;;;;;;;6280719;22;20021;-83
2023/10/02 06:55:32;;;;;;;51.00;27.75;;;;;;;;;;6257604;22;20015;-83
2023/10/02 06:57:58;;;;;;;50.75;26.75;;;;;;;;;;6256810;22;20019;-83
2023/10/02 07:00:36;;;;;;;48.35;26.05;;;;;;;;;;6255555;22;20022;-83
2023/10/02 07:03:03;;;;;;;47.80;27.13;;;;;;;;;;6257882;22;20486;-83
2023/10/02 07:05:35;;;;;;;48.72;26.50;;;;;;;;;;6258076;22;20021;-82
2023/10/02 07:08:26;;;;;;;49.08;26.90;;;;;;;;;;6257065;22;20402;-83
2023/10/02 07:10:53;;;;;;;47.33;25.13;;;;;;;;;;6260019;22;20042;-83
2023/10/02 07:13:20;;;;;;;42.83;25.10;;;;;;;;;;6258439;22;20034;-83
2023/10/02 07:15:55;;;;;;;49.72;25.67;;;;;;;;;;6260686;22;20012;-83
2023/10/02 07:18:35;;;;;;;48.53;27.00;;;;;;;;;;6259053;22;20346;-82
2023/10/02 07:21:07;;;;;;;41.45;24.35;;;;;;;;;;6257878;22;20019;-83
2023/10/02 07:23:37;;;;;;;41.70;24.70;;;;;;;;;;6256134;22;20055;-84
2023/10/02 07:26:04;;;;;;;48.55;26.27;;;;;;;;;;6257782;22;20076;-84
2023/10/02 07:28:31;;;;;;;44.60;25.05;;;;;;;;;;6309434;22;20046;-89
2023/10/02 07:30:59;;;;;;;45.47;24.38;;;;;;;;;;6254481;22;20106;-86
2023/10/02 07:33:25;;;;;;;45.70;24.50;;;;;;;;;;6280995;22;20029;-85
2023/10/02 07:35:55;;;;;;;51.13;25.67;;;;;;;;;;6255905;22;20499;-86
2023/10/02 07:38:30;;;;;;;46.45;24.55;;;;;;;;;;6280456;22;20054;-85
2023/10/02 07:40:57;;;;;;;49.30;26.17;;;;;;;;;;6280108;22;20079;-86
2023/10/02 07:43:24;;;;;;;43.97;24.60;;;;;;;;;;6290343;22;20347;-85
2023/10/02 07:46:02;;;;;;;40.47;23.23;;;;;;;;;;6257215;22;20119;-85
2023/10/02 07:48:35;;;;;;;43.30;25.33;;;;;;;;;;6309119;22;20019;-86
2023/10/02 07:51:02;;;;;;;44.40;24.80;;;;;;;;;;6308417;22;20019;-86
2023/10/02 07:53:40;;;;;;;44.55;24.42;;;;;;;;;;6255466;22;20050;-85
2023/10/02 07:56:15;;;;;;;45.55;24.27;;;;;;;;;;6280959;22;20019;-86
2023/10/02 07:58:43;;;;;;;;;;;;;;;;;;6256803;22;20439;-86
2023/10/02 08:01:12;;;;;;;41.72;22.67;;;;;;;;;;6255983;22;20350;-86
2023/10/02 08:03:49;;;;;;;41.13;22.80;;;;;;;;;;6255708;22;20474;-87
2023/10/02 08:06:48;;;;;;;42.70;23.73;;;;;;;;;;6254529;22;20023;-86
2023/10/02 08:11:53;;;;;;;43.50;23.80;;;;;;;;;;6280417;22;20026;-86
2023/10/02 08:14:38;;;;;;;41.90;23.83;;;;;;;;;;6281157;22;20019;-86
2023/10/02 08:20:24;;;;;;;39.45;22.35;;;;;;;;;;6233774;22;20046;-86
2023/10/02 08:22:53;;;;;;;41.53;23.27;;;;;;;;;;6256310;22;20099;-86
2023/10/02 08:25:23;;;;;;;39.17;21.42;;;;;;;;;;6255279;22;20015;-86
2023/10/02 08:27:57;;;;;;;41.88;22.77;;;;;;;;;;6255145;22;20015;-85
2023/10/02 08:30:36;;;;;;;41.03;22.73;;;;;;;;;;6254479;22;20502;-86
2023/10/02 08:33:07;;;;;;;41.63;21.92;;;;;;;;;;6255427;22;20015;-86
2023/10/02 08:35:46;;;;;;;42.72;21.83;;;;;;;;;;6255101;22;20018;-86
2023/10/02 08:38:33;;;;;;;44.58;22.40;;;;;;;;;;6255202;22;20042;-87
2023/10/02 08:41:06;;;;;;;44.63;21.75;;;;;;;;;;6279406;22;20090;-86
2023/10/02 08:43:41;;;;;;;41.00;20.42;;;;;;;;;;6255432;22;20289;-86
2023/10/02 08:46:08;;;;;;;44.75;21.33;;;;;;;;;;6254677;22;20022;-86
2023/10/02 08:48:34;;;;;;;38.65;21.25;;;;;;;;;;6254417;22;20011;-86
2023/10/02 08:51:01;;;;;;;41.05;22.25;;;;;;;;;;6281344;22;20016;-85
2023/10/02 08:53:27;;;;;;;42.10;21.83;;;;;;;;;;6254410;22;20034;-87
2023/10/02 08:56:11;;;;;;;39.80;21.35;;;;;;;;;;6280926;22;20012;-87
2023/10/02 08:58:37;;;;;;;38.40;20.17;;;;;;;;;;6254416;22;20467;-86
2023/10/02 09:06:36;;;;;;;40.38;20.80;;;;;;;;;;6280786;22;20080;-86
2023/10/02 09:09:23;;;;;;;40.63;20.55;;;;;;;;;;6280353;22;20068;-86
2023/10/02 09:11:53;;;;;;;41.50;19.83;;;;;;;;;;6255216;22;20037;-86
2023/10/02 09:14:22;;;;;;;36.88;19.95;;;;;;;;;;6254955;22;20081;-87
2023/10/02 09:19:53;;;;;;;34.67;19.85;;;;;;;;;;6308246;22;20023;-87
2023/10/02 09:22:20;;;;;;;38.22;21.58;;;;;;;;;;6255231;22;20115;-87
2023/10/02 09:24:58;;;;;;;42.25;21.67;;;;;;;;;;6253459;22;20023;-86
2023/10/02 09:27:30;;;;;;;38.05;21.15;;;;;;;;;;6254614;22;20277;-86
2023/10/02 09:32:51;;;;;;;39.40;21.08;;;;;;;;;;6280914;22;20451;-88
2023/10/02 09:35:40;;;;;;;36.78;21.88;;;;;;;;;;6254538;22;20019;-86
2023/10/02 09:38:05;;;;;;;35.58;19.70;;;;;;;;;;6306806;22;20019;-86
2023/10/02 09:43:17;;;;;;;34.47;18.75;;;;;;;;;;6280504;22;20436;-87
2023/10/02 09:45:46;;;;;;;30.70;16.40;;;;;;;;;;6255044;22;20387;-87
2023/10/02 09:48:46;;;;;;;33.92;17.55;;;;;;;;;;6254263;22;20015;-87
2023/10/02 09:51:06;;;;;;;30.40;17.50;;;;;;;;;;6280553;22;20054;-87
2023/10/02 09:54:02;;;;;;;26.38;16.08;;;;;;;;;;6254609;22;20007;-87
2023/10/02 09:56:37;;;;;;;32.13;18.30;;;;;;;;;;6254398;22;20090;-86
2023/10/02 09:59:16;;;;;;;27.42;17.05;;;;;;;;;;6254505;22;20019;-87
2023/10/02 10:01:42;;;;;;;27.30;16.27;;;;;;;;;;6254858;22;20069;-86
2023/10/02 10:04:32;;;;;;;30.25;17.42;;;;;;;;;;6254565;22;20026;-87
2023/10/02 10:07:08;;;;;;;33.20;17.33;;;;;;;;;;6279748;22;20019;-87
2023/10/02 10:09:50;;;;;;;30.75;17.85;;;;;;;;;;6254975;22;20015;-87
2023/10/02 10:12:50;;;;;;;33.90;17.23;;;;;;;;;;6254783;22;20015;-87
2023/10/02 10:15:25;;;;;;;29.13;16.17;;;;;;;;;;6306915;22;20138;-87
2023/10/02 10:17:51;;;;;;;27.02;16.58;;;;;;;;;;6307778;22;20015;-87
2023/10/02 10:20:22;;;;;;;26.98;14.90;;;;;;;;;;6254600;22;20097;-87
2023/10/02 10:22:51;;;;;;;26.13;16.10;;;;;;;;;;6280294;22;20451;-87
2023/10/02 10:27:58;;;;;;;26.85;16.10;;;;;;;;;;6280177;22;20392;-87
2023/10/02 10:30:28;;;;;;;24.23;14.38;;;;;;;;;;6256685;22;20080;-88
2023/10/02 10:35:36;;;;;;;23.20;14.13;;;;;;;;;;6281182;22;20083;-88
2023/10/02 10:41:09;;;;;;;22.05;14.05;;;;;;;;;;6280987;22;20032;-88
2023/10/02 10:43:46;;;;;;;24.83;14.70;;;;;;;;;;6280718;22;20145;-89
2023/10/02 10:46:19;;;;;;;22.95;14.15;;;;;;;;;;6254720;22;20011;-88
2023/10/02 10:48:59;;;;;;;20.08;11.85;;;;;;;;;;6255860;22;20027;-88
2023/10/02 10:51:27;;;;;;;19.83;11.85;;;;;;;;;;6255518;22;20068;-88
2023/10/02 10:54:12;;;;;;;21.02;12.05;;;;;;;;;;6255042;22;20049;-89
2023/10/02 10:56:43;;;;;;;17.65;10.75;;;;;;;;;;6255411;22;20053;-87
2023/10/02 10:59:16;;;;;;;17.20;10.95;;;;;;;;;;6256970;22;20023;-87
2023/10/02 11:02:12;;;;;;;21.58;11.18;;;;;;;;;;6256022;22;20270;-87
2023/10/02 11:04:43;;;;;;;17.67;11.05;;;;;;;;;;6255729;22;20023;-88
2023/10/02 11:07:19;;;;;;;17.75;10.18;;;;;;;;;;6256237;22;20051;-88
2023/10/02 11:09:51;;;;;;;;;;;;;;;;;;6256630;22;20342;-88
2023/10/02 11:12:36;;;;;;;16.48;9.80;;;;;;;;;;6255898;22;19933;-88
2023/10/02 11:15:08;;;;;;;18.98;11.02;;;;;;;;;;6281765;22;20374;-88
2023/10/02 11:17:42;;;;;;;19.40;11.02;;;;;;;;;;6257743;22;20016;-88
2023/10/02 11:20:09;;;;;;;14.63;10.18;;;;;;;;;;6256279;22;20019;-88
2023/10/02 11:23:03;;;;;;;18.50;10.90;;;;;;;;;;6309220;22;20422;-88
2023/10/02 11:25:29;;;;;;;19.73;9.75;;;;;;;;;;6256112;22;20451;-87
2023/10/02 11:28:05;;;;;;;19.60;10.45;;;;;;;;;;6283203;22;20019;-88
2023/10/02 11:30:32;;;;;;;18.05;10.13;;;;;;;;;;6255865;22;20077;-87
2023/10/02 11:35:56;;;;;;;16.27;9.75;;;;;;;;;;6278561;22;20451;-87
2023/10/02 11:38:25;;;;;;;18.83;9.95;;;;;;;;;;6255091;22;20039;-88
2023/10/02 11:40:52;;;;;;;18.13;9.75;;;;;;;;;;6255525;22;20090;-88
2023/10/02 11:43:19;;;;;;;16.27;9.88;;;;;;;;;;6280954;22;20087;-88
2023/10/02 11:45:49;;;;;;;18.08;9.95;;;;;;;;;;6255805;22;20022;-87
2023/10/02 11:48:15;;;;;;;18.63;10.63;;;;;;;;;;6255275;22;20034;-89
2023/10/02 11:50:43;;;;;;;18.33;9.80;;;;;;;;;;6280477;22;20023;-88
2023/10/02 11:53:09;;;;;;;15.30;9.60;;;;;;;;;;6255567;22;20020;-88
2023/10/02 11:55:35;;;;;;;15.48;9.40;;;;;;;;;;6256542;22;20011;-88
2023/10/02 11:58:04;;;;;;;14.55;8.77;;;;;;;;;;6256684;22;20015;-88
2023/10/02 12:00:31;;;;;;;15.50;8.90;;;;;;;;;;6256263;22;20049;-88
2023/10/02 12:02:59;;;;;;;16.67;9.05;;;;;;;;;;6255839;22;20517;-88
2023/10/02 12:05:26;;;;;;;15.98;8.45;;;;;;;;;;6255559;22;20344;-88
2023/10/02 12:07:52;;;;;;;15.80;8.27;;;;;;;;;;6255979;22;20094;-88
2023/10/02 12:10:21;;;;;;;17.23;9.05;;;;;;;;;;6256005;22;20019;-88
2023/10/02 12:12:47;;;;;;;17.00;9.90;;;;;;;;;;6255690;22;20501;-88
2023/10/02 12:15:16;;;;;;;15.23;8.57;;;;;;;;;;6255501;22;20036;-88
2023/10/02 12:17:44;;;;;;;16.00;9.27;;;;;;;;;;6281249;22;20021;-88
2023/10/02 12:20:12;;;;;;;15.25;8.43;;;;;;;;;;6255661;22;20073;-89
2023/10/02 12:22:38;;;;;;;17.30;9.32;;;;;;;;;;6255354;22;20023;-89
2023/10/02 12:25:14;;;;;;;15.20;7.95;;;;;;;;;;6256130;22;20016;-89
2023/10/02 12:27:40;;;;;;;16.15;8.43;;;;;;;;;;6255548;22;20046;-89
2023/10/02 12:30:16;;;;;;;14.35;7.75;;;;;;;;;;6255856;22;20114;-89
2023/10/02 12:32:42;;;;;;;14.32;7.78;;;;;;;;;;6255718;22;20064;-89
2023/10/02 12:35:09;;;;;;;14.43;8.43;;;;;;;;;;6255501;22;20027;-89
2023/10/02 12:37:35;;;;;;;13.68;7.65;;;;;;;;;;6255513;22;20026;-89
2023/10/02 12:40:02;;;;;;;16.60;8.80;;;;;;;;;;6255519;22;20094;-89
2023/10/02 12:42:31;;;;;;;16.80;9.20;;;;;;;;;;6255679;22;20031;-89
2023/10/02 12:44:57;;;;;;;16.17;8.27;;;;;;;;;;6255115;22;20030;-89
2023/10/02 12:47:23;;;;;;;14.95;9.35;;;;;;;;;;6256775;22;20020;-89
2023/10/02 12:49:54;;;;;;;16.40;9.60;;;;;;;;;;6255733;22;20011;-89
2023/10/02 12:52:22;;;;;;;14.82;9.00;;;;;;;;;;6255768;22;20019;-89
2023/10/02 12:54:48;;;;;;;17.17;9.65;;;;;;;;;;6255440;22;20351;-89
2023/10/02 12:57:15;;;;;;;15.55;9.13;;;;;;;;;;6255916;22;20018;-89
2023/10/02 12:59:41;;;;;;;13.05;8.77;;;;;;;;;;6255337;22;20021;-89
2023/10/02 13:02:07;;;;;;;13.60;9.30;;;;;;;;;;6255317;22;20045;-90
2023/10/02 13:04:33;;;;;;;15.65;8.80;;;;;;;;;;6255946;22;20098;-90
2023/10/02 13:07:01;;;;;;;14.85;9.23;;;;;;;;;;6255328;22;20019;-89
2023/10/02 13:09:27;;;;;;;17.30;8.35;;;;;;;;;;6256393;22;20015;-89
2023/10/02 13:11:55;;;;;;;14.32;8.98;;;;;;;;;;6255561;22;20015;-89
2023/10/02 13:14:24;;;;;;;17.48;9.60;;;;;;;;;;6255606;22;20022;-91
2023/10/02 13:16:53;;;;;;;17.25;9.43;;;;;;;;;;6255476;22;20313;-89
2023/10/02 13:19:19;;;;;;;20.40;10.77;;;;;;;;;;6255277;22;20019;-88
2023/10/02 13:21:53;;;;;;;16.75;11.02;;;;;;;;;;6253797;22;20027;-89
2023/10/02 13:24:23;;;;;;;16.45;9.77;;;;;;;;;;6255088;22;20539;-89
2023/10/02 13:26:52;;;;;;;16.48;10.55;;;;;;;;;;6255004;22;20098;-89
2023/10/02 13:29:22;;;;;;;18.42;10.90;;;;;;;;;;6255194;22;20156;-89
2023/10/02 13:31:48;;;;;;;16.05;10.68;;;;;;;;;;6255343;22;20022;-89
2023/10/02 13:34:16;;;;;;;17.95;10.73;;;;;;;;;;6253985;22;20016;-90
2023/10/02 13:36:45;;;;;;;19.10;11.35;;;;;;;;;;6254551;22;20073;-89
2023/10/02 13:39:19;;;;;;;22.23;11.00;;;;;;;;;;6255285;22;20088;-90
2023/10/02 13:41:48;;;;;;;17.10;11.38;;;;;;;;;;6255296;22;20007;-91
2023/10/02 13:44:19;;;;;;;16.60;11.80;;;;;;;;;;6254786;22;20022;-89
2023/10/02 13:46:46;;;;;;;15.90;10.98;;;;;;;;;;6254627;22;20015;-89
2023/10/02 13:49:14;;;;;;;20.60;11.30;;;;;;;;;;6255568;22;20436;-88
2023/10/02 13:51:41;;;;;;;17.20;10.32;;;;;;;;;;6254429;22;20080;-89
2023/10/02 13:54:10;;;;;;;17.77;10.20;;;;;;;;;;6254809;22;20018;-89
2023/10/02 13:56:40;;;;;;;16.90;10.13;;;;;;;;;;6254538;22;20337;-88
2023/10/02 13:59:06;;;;;;;19.05;11.07;;;;;;;;;;6254304;22;20321;-89
2023/10/02 14:01:33;;;;;;;19.23;11.63;;;;;;;;;;6254592;22;20068;-88
2023/10/02 14:03:59;;;;;;;18.63;11.15;;;;;;;;;;6254861;22;20023;-89
2023/10/02 14:06:28;;;;;;;20.80;12.32;;;;;;;;;;6254607;22;20019;-89
2023/10/02 14:08:55;;;;;;;19.67;12.45;;;;;;;;;;6255289;22;20023;-89
2023/10/02 14:11:25;;;;;;;19.88;11.75;;;;;;;;;;6254011;22;20060;-89
2023/10/02 14:13:53;;;;;;;19.77;11.15;;;;;;;;;;6254258;22;20459;-90
2023/10/02 14:16:24;;;;;;;21.10;11.88;;;;;;;;;;6254431;22;20099;-89
2023/10/02 14:18:55;;;;;;;20.85;12.75;;;;;;;;;;6254219;22;20098;-89
2023/10/02 14:21:22;;;;;;;19.55;12.23;;;;;;;;;;6254251;22;20343;-89
2023/10/02 14:23:54;;;;;;;20.80;14.43;;;;;;;;;;6254403;22;20022;-89
2023/10/02 14:26:23;;;;;;;20.53;13.80;;;;;;;;;;6255119;22;20012;-89
2023/10/02 14:28:51;;;;;;;21.63;14.88;;;;;;;;;;6254342;22;20351;-89
2023/10/02 14:31:28;;;;;;;21.98;14.15;;;;;;;;;;6254252;22;20144;-89
2023/10/02 14:34:02;;;;;;;25.08;14.45;;;;;;;;;;6255006;22;20020;-91
2023/10/02 14:36:32;;;;;;;22.13;13.77;;;;;;;;;;6254154;22;20103;-91
2023/10/02 14:39:03;;;;;;;22.38;13.00;;;;;;;;;;6254762;22;20011;-87
2023/10/02 14:41:29;;;;;;;17.80;11.70;;;;;;;;;;6254584;22;20023;-87
2023/10/02 14:43:57;;;;;;;19.35;11.35;;;;;;;;;;6254915;22;20344;-86
2023/10/02 14:46:26;;;;;;;20.00;10.70;;;;;;;;;;6255213;22;20015;-86
2023/10/02 14:48:53;;;;;;;18.73;11.07;;;;;;;;;;6254177;22;20023;-86
2023/10/02 14:51:19;;;;;;;18.05;10.30;;;;;;;;;;6254149;22;20029;-86
2023/10/02 14:53:45;;;;;;;19.60;10.75;;;;;;;;;;6254343;22;20078;-86
2023/10/02 14:56:22;;;;;;;17.90;10.75;;;;;;;;;;6252820;22;20019;-88
2023/10/02 14:58:48;;;;;;;19.38;10.57;;;;;;;;;;6254140;22;20025;-87
2023/10/02 15:01:30;;;;;;;;;;;;;;;;;;;;;
2023/10/02 15:04:28;;;;;;;22.80;14.63;;;;;;;;;;6279431;22;20072;-89
2023/10/02 15:06:57;;;;;;;24.42;14.38;;;;;;;;;;6253567;22;20069;-89
2023/10/02 15:09:32;;;;;;;26.55;14.82;;;;;;;;;;6256105;22;20012;-87
2023/10/02 15:12:01;;;;;;;25.77;14.88;;;;;;;;;;6253750;22;20027;-87
2023/10/02 15:14:28;;;;;;;25.17;14.07;;;;;;;;;;6254259;22;20031;-87
2023/10/02 15:16:56;;;;;;;24.58;15.00;;;;;;;;;;6254030;22;20335;-87
2023/10/02 15:19:22;;;;;;;24.58;14.40;;;;;;;;;;6253923;22;20015;-87
2023/10/02 15:21:49;;;;;;;22.95;13.73;;;;;;;;;;6254199;22;20026;-86
2023/10/02 15:24:18;;;;;;;23.38;13.65;;;;;;;;;;6253605;22;20015;-86
2023/10/02 15:26:47;;;;;;;21.15;12.52;;;;;;;;;;6253765;22;20031;-86
2023/10/02 15:29:16;;;;;;;22.70;13.23;;;;;;;;;;6280577;22;20019;-85
2023/10/02 15:31:45;;;;;;;21.60;13.00;;;;;;;;;;6280634;22;20408;-86
2023/10/02 15:34:15;;;;;;;22.02;12.68;;;;;;;;;;6255829;22;20026;-87
2023/10/02 15:36:45;;;;;;;26.65;14.38;;;;;;;;;;6255302;22;20069;-87
2023/10/02 15:39:13;;;;;;;21.23;12.77;;;;;;;;;;6256061;22;20086;-85
2023/10/02 15:41:44;;;;;;;20.27;12.18;;;;;;;;;;6281247;22;20459;-86
2023/10/02 15:44:16;;;;;;;20.05;12.40;;;;;;;;;;6280564;22;20023;-85
2023/10/02 15:46:50;;;;;;;25.67;13.77;;;;;;;;;;6254535;22;20015;-86